sensor_id;sensor_type;location;lat;lon;timestamp;temperature;humidity
25436;DHT22;13363;52.772;-3.890;2022-10-18T00:01:07;10.60;99.90
25436;DHT22;13363;52.772;-3.890;2022-10-18T00:03:34;10.60;99.90
25436;DHT22;13363;52.772;-3.890;2022-10-18T00:06:00;10.60;99.90
25436;DHT22;13363;52.772;-3.890;2022-10-18T00:08:26;10.60;99.90
25436;DHT22;13363;52.772;-3.890;2022-10-18T00:10:52;10.60;99.90
25436;DHT22;13363;52.772;-3.890;2022-10-18T00:13:18;10.50;99.90
25436;DHT22;13363;52.772;-3.890;2022-10-18T00:15:53;10.50;99.90
25436;DHT22;13363;52.772;-3.890;2022-10-18T00:18:19;10.50;99.90
25436;DHT22;13363;52.772;-3.890;2022-10-18T00:20:47;10.50;99.90
25436;DHT22;13363;52.772;-3.890;2022-10-18T00:23:20;10.40;99.90
25436;DHT22;13363;52.772;-3.890;2022-10-18T00:25:46;10.40;99.90
25436;DHT22;13363;52.772;-3.890;2022-10-18T00:28:12;10.30;99.90
25436;DHT22;13363;52.772;-3.890;2022-10-18T00:30:37;10.40;99.90
25436;DHT22;13363;52.772;-3.890;2022-10-18T00:33:03;10.40;99.90
25436;DHT22;13363;52.772;-3.890;2022-10-18T00:35:29;10.40;99.90
25436;DHT22;13363;52.772;-3.890;2022-10-18T00:37:55;10.30;99.90
25436;DHT22;13363;52.772;-3.890;2022-10-18T00:40:21;10.30;99.90
25436;DHT22;13363;52.772;-3.890;2022-10-18T00:42:46;10.20;99.90
25436;DHT22;13363;52.772;-3.890;2022-10-18T00:45:21;10.10;99.90
25436;DHT22;13363;52.772;-3.890;2022-10-18T00:47:55;10.10;99.90
25436;DHT22;13363;52.772;-3.890;2022-10-18T00:50:24;10.00;99.90
25436;DHT22;13363;52.772;-3.890;2022-10-18T00:52:56;10.00;99.90
25436;DHT22;13363;52.772;-3.890;2022-10-18T00:55:26;10.10;99.90
25436;DHT22;13363;52.772;-3.890;2022-10-18T00:57:54;10.00;99.90
25436;DHT22;13363;52.772;-3.890;2022-10-18T01:00:21;10.00;99.90
25436;DHT22;13363;52.772;-3.890;2022-10-18T01:02:47;10.00;99.90
25436;DHT22;13363;52.772;-3.890;2022-10-18T01:05:15;9.90;99.90
25436;DHT22;13363;52.772;-3.890;2022-10-18T01:18:36;9.90;99.90
25436;DHT22;13363;52.772;-3.890;2022-10-18T01:32:58;9.90;99.90
25436;DHT22;13363;52.772;-3.890;2022-10-18T01:35:35;9.90;99.90
25436;DHT22;13363;52.772;-3.890;2022-10-18T01:38:08;9.90;99.90
25436;DHT22;13363;52.772;-3.890;2022-10-18T01:40:37;9.90;99.90
25436;DHT22;13363;52.772;-3.890;2022-10-18T01:43:07;9.90;99.90
25436;DHT22;13363;52.772;-3.890;2022-10-18T01:45:34;9.90;99.90
25436;DHT22;13363;52.772;-3.890;2022-10-18T01:48:01;9.90;99.90
25436;DHT22;13363;52.772;-3.890;2022-10-18T01:50:29;9.90;99.90
25436;DHT22;13363;52.772;-3.890;2022-10-18T01:52:56;9.90;99.90
25436;DHT22;13363;52.772;-3.890;2022-10-18T01:55:42;9.90;99.90
25436;DHT22;13363;52.772;-3.890;2022-10-18T01:58:20;9.90;99.90
25436;DHT22;13363;52.772;-3.890;2022-10-18T02:00:50;9.90;99.90
25436;DHT22;13363;52.772;-3.890;2022-10-18T02:03:25;9.90;99.90
25436;DHT22;13363;52.772;-3.890;2022-10-18T02:06:06;9.80;99.90
25436;DHT22;13363;52.772;-3.890;2022-10-18T02:11:12;9.80;99.90
25436;DHT22;13363;52.772;-3.890;2022-10-18T02:13:42;9.80;99.90
25436;DHT22;13363;52.772;-3.890;2022-10-18T02:16:20;9.70;99.90
25436;DHT22;13363;52.772;-3.890;2022-10-18T02:18:51;9.60;99.90
25436;DHT22;13363;52.772;-3.890;2022-10-18T02:21:20;9.50;99.90
25436;DHT22;13363;52.772;-3.890;2022-10-18T02:23:47;9.50;99.90
25436;DHT22;13363;52.772;-3.890;2022-10-18T02:26:15;9.40;99.90
25436;DHT22;13363;52.772;-3.890;2022-10-18T02:28:41;9.40;99.90
25436;DHT22;13363;52.772;-3.890;2022-10-18T02:34:21;9.40;99.90
25436;DHT22;13363;52.772;-3.890;2022-10-18T02:36:51;9.30;99.90
25436;DHT22;13363;52.772;-3.890;2022-10-18T02:39:21;9.20;99.90
25436;DHT22;13363;52.772;-3.890;2022-10-18T02:41:48;9.20;99.90
25436;DHT22;13363;52.772;-3.890;2022-10-18T02:44:14;9.20;99.90
25436;DHT22;13363;52.772;-3.890;2022-10-18T02:46:40;9.20;99.90
25436;DHT22;13363;52.772;-3.890;2022-10-18T02:49:06;9.30;99.90
25436;DHT22;13363;52.772;-3.890;2022-10-18T02:51:32;9.20;99.90
25436;DHT22;13363;52.772;-3.890;2022-10-18T02:53:57;9.20;99.90
25436;DHT22;13363;52.772;-3.890;2022-10-18T02:56:23;9.10;99.90
25436;DHT22;13363;52.772;-3.890;2022-10-18T02:58:49;9.10;99.90
25436;DHT22;13363;52.772;-3.890;2022-10-18T03:01:15;9.10;99.90
25436;DHT22;13363;52.772;-3.890;2022-10-18T03:03:41;9.10;99.90
25436;DHT22;13363;52.772;-3.890;2022-10-18T03:06:07;9.20;99.90
25436;DHT22;13363;52.772;-3.890;2022-10-18T03:08:32;9.20;99.90
25436;DHT22;13363;52.772;-3.890;2022-10-18T03:10:58;9.20;99.90
25436;DHT22;13363;52.772;-3.890;2022-10-18T03:13:24;9.20;99.90
25436;DHT22;13363;52.772;-3.890;2022-10-18T03:15:50;9.10;99.90
25436;DHT22;13363;52.772;-3.890;2022-10-18T03:18:15;9.10;99.90
25436;DHT22;13363;52.772;-3.890;2022-10-18T03:20:41;9.10;99.90
25436;DHT22;13363;52.772;-3.890;2022-10-18T03:23:07;9.00;99.90
25436;DHT22;13363;52.772;-3.890;2022-10-18T03:25:33;9.00;99.90
25436;DHT22;13363;52.772;-3.890;2022-10-18T03:27:59;8.90;99.90
25436;DHT22;13363;52.772;-3.890;2022-10-18T03:30:25;8.90;99.90
25436;DHT22;13363;52.772;-3.890;2022-10-18T03:32:51;8.90;99.90
25436;DHT22;13363;52.772;-3.890;2022-10-18T03:35:19;8.90;99.90
25436;DHT22;13363;52.772;-3.890;2022-10-18T03:37:44;8.90;99.90
25436;DHT22;13363;52.772;-3.890;2022-10-18T03:40:10;8.80;99.90
25436;DHT22;13363;52.772;-3.890;2022-10-18T03:42:36;8.80;99.90
25436;DHT22;13363;52.772;-3.890;2022-10-18T03:45:03;8.90;99.90
25436;DHT22;13363;52.772;-3.890;2022-10-18T03:47:28;9.00;99.90
25436;DHT22;13363;52.772;-3.890;2022-10-18T03:49:54;9.00;99.90
25436;DHT22;13363;52.772;-3.890;2022-10-18T03:52:20;9.00;99.90
25436;DHT22;13363;52.772;-3.890;2022-10-18T03:54:46;8.90;99.90
25436;DHT22;13363;52.772;-3.890;2022-10-18T03:57:12;8.90;99.90
25436;DHT22;13363;52.772;-3.890;2022-10-18T03:59:38;8.90;99.90
25436;DHT22;13363;52.772;-3.890;2022-10-18T04:02:03;9.00;99.90
25436;DHT22;13363;52.772;-3.890;2022-10-18T04:04:29;9.00;99.90
25436;DHT22;13363;52.772;-3.890;2022-10-18T04:06:55;9.00;99.90
25436;DHT22;13363;52.772;-3.890;2022-10-18T04:09:21;9.00;99.90
25436;DHT22;13363;52.772;-3.890;2022-10-18T04:11:49;8.90;99.90
25436;DHT22;13363;52.772;-3.890;2022-10-18T04:14:15;8.90;99.90
25436;DHT22;13363;52.772;-3.890;2022-10-18T04:16:41;8.90;99.90
25436;DHT22;13363;52.772;-3.890;2022-10-18T04:19:07;9.00;99.90
25436;DHT22;13363;52.772;-3.890;2022-10-18T04:21:32;9.10;99.90
25436;DHT22;13363;52.772;-3.890;2022-10-18T04:23:58;9.10;99.90
25436;DHT22;13363;52.772;-3.890;2022-10-18T04:26:24;9.10;99.90
25436;DHT22;13363;52.772;-3.890;2022-10-18T04:28:50;9.10;99.90
25436;DHT22;13363;52.772;-3.890;2022-10-18T04:31:16;9.10;99.90
25436;DHT22;13363;52.772;-3.890;2022-10-18T04:33:41;9.10;99.90
25436;DHT22;13363;52.772;-3.890;2022-10-18T04:36:07;9.00;99.90
25436;DHT22;13363;52.772;-3.890;2022-10-18T04:38:33;8.90;99.90
25436;DHT22;13363;52.772;-3.890;2022-10-18T04:40:59;8.90;99.90
25436;DHT22;13363;52.772;-3.890;2022-10-18T04:43:25;8.90;99.90
25436;DHT22;13363;52.772;-3.890;2022-10-18T04:45:51;8.90;99.90
25436;DHT22;13363;52.772;-3.890;2022-10-18T04:48:17;8.90;99.90
25436;DHT22;13363;52.772;-3.890;2022-10-18T04:50:45;8.90;99.90
25436;DHT22;13363;52.772;-3.890;2022-10-18T04:53:12;8.90;99.90
25436;DHT22;13363;52.772;-3.890;2022-10-18T04:55:37;8.80;99.90
25436;DHT22;13363;52.772;-3.890;2022-10-18T04:58:03;8.80;99.90
25436;DHT22;13363;52.772;-3.890;2022-10-18T05:00:29;8.80;99.90
25436;DHT22;13363;52.772;-3.890;2022-10-18T05:02:56;8.80;99.90
25436;DHT22;13363;52.772;-3.890;2022-10-18T05:05:22;8.70;99.90
25436;DHT22;13363;52.772;-3.890;2022-10-18T05:07:48;8.60;99.90
25436;DHT22;13363;52.772;-3.890;2022-10-18T05:10:14;8.50;99.90
25436;DHT22;13363;52.772;-3.890;2022-10-18T05:12:39;8.50;99.90
25436;DHT22;13363;52.772;-3.890;2022-10-18T05:15:05;8.40;99.90
25436;DHT22;13363;52.772;-3.890;2022-10-18T05:17:31;8.40;99.90
25436;DHT22;13363;52.772;-3.890;2022-10-18T05:19:57;8.40;99.90
25436;DHT22;13363;52.772;-3.890;2022-10-18T05:22:23;8.30;99.90
25436;DHT22;13363;52.772;-3.890;2022-10-18T05:24:49;8.30;99.90
25436;DHT22;13363;52.772;-3.890;2022-10-18T05:27:15;8.20;99.90
25436;DHT22;13363;52.772;-3.890;2022-10-18T05:29:40;8.20;99.90
25436;DHT22;13363;52.772;-3.890;2022-10-18T05:32:06;8.20;99.90
25436;DHT22;13363;52.772;-3.890;2022-10-18T05:34:32;8.10;99.90
25436;DHT22;13363;52.772;-3.890;2022-10-18T05:36:59;8.10;99.90
25436;DHT22;13363;52.772;-3.890;2022-10-18T05:39:25;8.10;99.90
25436;DHT22;13363;52.772;-3.890;2022-10-18T05:41:50;8.00;99.90
25436;DHT22;13363;52.772;-3.890;2022-10-18T05:44:16;8.00;99.90
25436;DHT22;13363;52.772;-3.890;2022-10-18T05:46:42;7.90;99.90
25436;DHT22;13363;52.772;-3.890;2022-10-18T05:49:12;8.00;99.90
25436;DHT22;13363;52.772;-3.890;2022-10-18T05:51:39;8.00;99.90
25436;DHT22;13363;52.772;-3.890;2022-10-18T05:54:04;8.10;99.90
25436;DHT22;13363;52.772;-3.890;2022-10-18T05:56:30;8.10;99.90
25436;DHT22;13363;52.772;-3.890;2022-10-18T05:58:56;8.20;99.90
25436;DHT22;13363;52.772;-3.890;2022-10-18T06:01:22;8.20;99.90
25436;DHT22;13363;52.772;-3.890;2022-10-18T06:03:49;8.30;99.90
25436;DHT22;13363;52.772;-3.890;2022-10-18T06:06:15;8.40;99.90
25436;DHT22;13363;52.772;-3.890;2022-10-18T06:08:42;8.60;99.90
25436;DHT22;13363;52.772;-3.890;2022-10-18T06:11:13;8.60;99.90
25436;DHT22;13363;52.772;-3.890;2022-10-18T06:13:43;8.70;99.90
25436;DHT22;13363;52.772;-3.890;2022-10-18T06:16:10;8.70;99.90
25436;DHT22;13363;52.772;-3.890;2022-10-18T06:18:37;8.60;99.90
25436;DHT22;13363;52.772;-3.890;2022-10-18T06:21:03;8.60;99.90
25436;DHT22;13363;52.772;-3.890;2022-10-18T06:23:29;8.50;99.90
25436;DHT22;13363;52.772;-3.890;2022-10-18T06:26:01;8.40;99.90
25436;DHT22;13363;52.772;-3.890;2022-10-18T06:28:29;8.40;99.90
25436;DHT22;13363;52.772;-3.890;2022-10-18T06:30:56;8.30;99.90
25436;DHT22;13363;52.772;-3.890;2022-10-18T06:33:23;8.20;99.90
25436;DHT22;13363;52.772;-3.890;2022-10-18T06:35:59;8.20;99.90
25436;DHT22;13363;52.772;-3.890;2022-10-18T06:38:26;8.30;99.90
25436;DHT22;13363;52.772;-3.890;2022-10-18T06:40:53;8.40;99.90
25436;DHT22;13363;52.772;-3.890;2022-10-18T06:43:19;8.40;99.90
25436;DHT22;13363;52.772;-3.890;2022-10-18T06:45:45;8.40;99.90
25436;DHT22;13363;52.772;-3.890;2022-10-18T06:48:11;8.40;99.90
25436;DHT22;13363;52.772;-3.890;2022-10-18T06:50:37;8.40;99.90
25436;DHT22;13363;52.772;-3.890;2022-10-18T06:53:03;8.30;99.90
25436;DHT22;13363;52.772;-3.890;2022-10-18T06:55:31;8.10;99.90
25436;DHT22;13363;52.772;-3.890;2022-10-18T06:57:56;8.20;99.90
25436;DHT22;13363;52.772;-3.890;2022-10-18T07:00:22;8.10;99.90
25436;DHT22;13363;52.772;-3.890;2022-10-18T07:02:48;8.00;99.90
25436;DHT22;13363;52.772;-3.890;2022-10-18T07:05:14;8.00;99.90
25436;DHT22;13363;52.772;-3.890;2022-10-18T07:07:40;7.90;99.90
25436;DHT22;13363;52.772;-3.890;2022-10-18T07:10:06;7.90;99.90
25436;DHT22;13363;52.772;-3.890;2022-10-18T07:12:32;8.00;99.90
25436;DHT22;13363;52.772;-3.890;2022-10-18T07:14:58;7.90;99.90
25436;DHT22;13363;52.772;-3.890;2022-10-18T07:17:25;7.90;99.90
25436;DHT22;13363;52.772;-3.890;2022-10-18T07:19:51;7.90;99.90
25436;DHT22;13363;52.772;-3.890;2022-10-18T07:22:16;7.90;99.90
25436;DHT22;13363;52.772;-3.890;2022-10-18T07:24:42;7.90;99.90
25436;DHT22;13363;52.772;-3.890;2022-10-18T07:27:08;7.90;99.90
25436;DHT22;13363;52.772;-3.890;2022-10-18T07:29:34;8.00;99.90
25436;DHT22;13363;52.772;-3.890;2022-10-18T07:32:03;8.00;99.90
25436;DHT22;13363;52.772;-3.890;2022-10-18T07:34:29;8.00;99.90
25436;DHT22;13363;52.772;-3.890;2022-10-18T07:36:54;8.10;99.90
25436;DHT22;13363;52.772;-3.890;2022-10-18T07:39:20;8.10;99.90
25436;DHT22;13363;52.772;-3.890;2022-10-18T07:41:46;8.20;99.90
25436;DHT22;13363;52.772;-3.890;2022-10-18T07:44:12;8.20;99.90
25436;DHT22;13363;52.772;-3.890;2022-10-18T07:46:38;8.20;99.90
25436;DHT22;13363;52.772;-3.890;2022-10-18T07:49:04;8.20;99.90
25436;DHT22;13363;52.772;-3.890;2022-10-18T07:51:31;8.30;99.90
25436;DHT22;13363;52.772;-3.890;2022-10-18T07:54:01;8.30;99.90
25436;DHT22;13363;52.772;-3.890;2022-10-18T07:56:27;8.30;99.90
25436;DHT22;13363;52.772;-3.890;2022-10-18T07:58:54;8.60;99.90
25436;DHT22;13363;52.772;-3.890;2022-10-18T08:01:22;8.70;99.90
25436;DHT22;13363;52.772;-3.890;2022-10-18T08:03:49;8.60;99.90
25436;DHT22;13363;52.772;-3.890;2022-10-18T08:06:16;8.50;99.90
25436;DHT22;13363;52.772;-3.890;2022-10-18T08:08:44;8.60;99.90
25436;DHT22;13363;52.772;-3.890;2022-10-18T08:11:15;8.60;99.90
25436;DHT22;13363;52.772;-3.890;2022-10-18T08:13:42;8.60;99.90
25436;DHT22;13363;52.772;-3.890;2022-10-18T08:16:11;8.70;99.90
25436;DHT22;13363;52.772;-3.890;2022-10-18T08:18:37;8.70;99.90
25436;DHT22;13363;52.772;-3.890;2022-10-18T08:21:05;8.70;99.90
25436;DHT22;13363;52.772;-3.890;2022-10-18T08:23:32;8.70;99.90
25436;DHT22;13363;52.772;-3.890;2022-10-18T08:26:03;8.80;99.90
25436;DHT22;13363;52.772;-3.890;2022-10-18T08:28:29;8.90;99.90
25436;DHT22;13363;52.772;-3.890;2022-10-18T08:30:55;8.90;99.90
25436;DHT22;13363;52.772;-3.890;2022-10-18T08:33:22;8.90;99.90
25436;DHT22;13363;52.772;-3.890;2022-10-18T08:35:55;9.00;99.90
25436;DHT22;13363;52.772;-3.890;2022-10-18T08:38:21;9.80;99.90
25436;DHT22;13363;52.772;-3.890;2022-10-18T08:40:46;11.30;99.90
25436;DHT22;13363;52.772;-3.890;2022-10-18T08:43:30;12.80;99.90
25436;DHT22;13363;52.772;-3.890;2022-10-18T08:45:59;14.30;99.90
25436;DHT22;13363;52.772;-3.890;2022-10-18T08:48:47;15.50;99.90
25436;DHT22;13363;52.772;-3.890;2022-10-18T08:51:29;16.40;99.90
25436;DHT22;13363;52.772;-3.890;2022-10-18T08:56:27;17.70;99.90
25436;DHT22;13363;52.772;-3.890;2022-10-18T08:58:54;17.60;99.90
25436;DHT22;13363;52.772;-3.890;2022-10-18T09:03:56;17.50;99.90
25436;DHT22;13363;52.772;-3.890;2022-10-18T09:06:43;17.40;99.90
25436;DHT22;13363;52.772;-3.890;2022-10-18T09:09:33;17.90;99.90
25436;DHT22;13363;52.772;-3.890;2022-10-18T09:15:57;18.40;99.90
25436;DHT22;13363;52.772;-3.890;2022-10-18T09:21:04;19.30;99.90
25436;DHT22;13363;52.772;-3.890;2022-10-18T09:27:17;19.50;99.90
25436;DHT22;13363;52.772;-3.890;2022-10-18T09:30:03;19.70;99.90
25436;DHT22;13363;52.772;-3.890;2022-10-18T09:35:24;19.90;99.90
25436;DHT22;13363;52.772;-3.890;2022-10-18T09:38:03;20.10;99.90
25436;DHT22;13363;52.772;-3.890;2022-10-18T09:40:35;20.90;99.90
25436;DHT22;13363;52.772;-3.890;2022-10-18T09:43:14;21.20;99.90
25436;DHT22;13363;52.772;-3.890;2022-10-18T09:45:44;21.10;99.90
25436;DHT22;13363;52.772;-3.890;2022-10-18T09:48:27;21.00;99.90
25436;DHT22;13363;52.772;-3.890;2022-10-18T09:53:40;21.40;99.90
25436;DHT22;13363;52.772;-3.890;2022-10-18T09:56:25;21.50;99.90
25436;DHT22;13363;52.772;-3.890;2022-10-18T09:58:54;21.00;99.90
25436;DHT22;13363;52.772;-3.890;2022-10-18T10:01:28;20.60;99.90
25436;DHT22;13363;52.772;-3.890;2022-10-18T10:03:54;20.50;99.90
25436;DHT22;13363;52.772;-3.890;2022-10-18T10:06:30;20.20;99.90
25436;DHT22;13363;52.772;-3.890;2022-10-18T10:09:13;20.30;99.90
25436;DHT22;13363;52.772;-3.890;2022-10-18T10:11:45;20.50;99.90
25436;DHT22;13363;52.772;-3.890;2022-10-18T10:14:12;20.40;99.90
25436;DHT22;13363;52.772;-3.890;2022-10-18T10:17:03;19.90;99.90
25436;DHT22;13363;52.772;-3.890;2022-10-18T10:19:37;20.00;99.90
25436;DHT22;13363;52.772;-3.890;2022-10-18T10:22:09;20.40;99.90
25436;DHT22;13363;52.772;-3.890;2022-10-18T10:30:35;20.90;99.90
25436;DHT22;13363;52.772;-3.890;2022-10-18T10:33:02;20.90;99.90
25436;DHT22;13363;52.772;-3.890;2022-10-18T10:35:38;21.10;99.90
25436;DHT22;13363;52.772;-3.890;2022-10-18T10:38:05;21.20;99.90
25436;DHT22;13363;52.772;-3.890;2022-10-18T10:40:47;20.90;99.90
25436;DHT22;13363;52.772;-3.890;2022-10-18T10:48:25;21.20;99.90
25436;DHT22;13363;52.772;-3.890;2022-10-18T10:51:01;21.50;99.90
25436;DHT22;13363;52.772;-3.890;2022-10-18T10:55:55;21.20;99.90
25436;DHT22;13363;52.772;-3.890;2022-10-18T10:58:23;21.60;99.90
25436;DHT22;13363;52.772;-3.890;2022-10-18T11:00:50;21.70;99.90
25436;DHT22;13363;52.772;-3.890;2022-10-18T11:03:18;22.20;99.90
25436;DHT22;13363;52.772;-3.890;2022-10-18T11:05:47;22.20;99.90
25436;DHT22;13363;52.772;-3.890;2022-10-18T11:08:19;22.50;99.90
25436;DHT22;13363;52.772;-3.890;2022-10-18T11:10:55;22.10;99.90
25436;DHT22;13363;52.772;-3.890;2022-10-18T11:14:20;22.40;99.90
25436;DHT22;13363;52.772;-3.890;2022-10-18T11:18:56;22.60;99.90
25436;DHT22;13363;52.772;-3.890;2022-10-18T11:21:27;22.80;99.90
25436;DHT22;13363;52.772;-3.890;2022-10-18T11:23:54;23.10;99.90
25436;DHT22;13363;52.772;-3.890;2022-10-18T11:26:56;23.30;99.90
25436;DHT22;13363;52.772;-3.890;2022-10-18T11:32:14;23.90;99.90
25436;DHT22;13363;52.772;-3.890;2022-10-18T11:41:08;23.10;99.90
25436;DHT22;13363;52.772;-3.890;2022-10-18T11:43:57;22.60;99.90
25436;DHT22;13363;52.772;-3.890;2022-10-18T11:49:17;23.10;99.90
25436;DHT22;13363;52.772;-3.890;2022-10-18T12:05:28;23.30;99.90
25436;DHT22;13363;52.772;-3.890;2022-10-18T12:08:06;23.60;99.90
25436;DHT22;13363;52.772;-3.890;2022-10-18T12:10:34;23.80;99.90
25436;DHT22;13363;52.772;-3.890;2022-10-18T12:13:04;23.80;99.90
25436;DHT22;13363;52.772;-3.890;2022-10-18T12:15:34;23.40;99.90
25436;DHT22;13363;52.772;-3.890;2022-10-18T12:18:10;23.30;99.90
25436;DHT22;13363;52.772;-3.890;2022-10-18T12:20:42;23.50;99.90
25436;DHT22;13363;52.772;-3.890;2022-10-18T12:23:13;23.50;99.90
25436;DHT22;13363;52.772;-3.890;2022-10-18T12:25:44;22.90;99.90
25436;DHT22;13363;52.772;-3.890;2022-10-18T12:33:23;21.60;99.90
25436;DHT22;13363;52.772;-3.890;2022-10-18T12:38:44;20.40;99.90
25436;DHT22;13363;52.772;-3.890;2022-10-18T12:41:23;20.40;99.90
25436;DHT22;13363;52.772;-3.890;2022-10-18T12:43:53;20.40;99.90
25436;DHT22;13363;52.772;-3.890;2022-10-18T12:46:21;20.20;99.90
25436;DHT22;13363;52.772;-3.890;2022-10-18T12:49:02;20.30;99.90
25436;DHT22;13363;52.772;-3.890;2022-10-18T12:51:28;20.60;99.90
25436;DHT22;13363;52.772;-3.890;2022-10-18T13:09:31;20.90;99.90
25436;DHT22;13363;52.772;-3.890;2022-10-18T13:14:44;21.20;99.90
25436;DHT22;13363;52.772;-3.890;2022-10-18T13:39:32;20.40;99.90
25436;DHT22;13363;52.772;-3.890;2022-10-18T13:44:26;19.90;99.90
25436;DHT22;13363;52.772;-3.890;2022-10-18T14:08:41;19.90;99.90
25436;DHT22;13363;52.772;-3.890;2022-10-18T14:22:42;19.60;99.90
25436;DHT22;13363;52.772;-3.890;2022-10-18T14:25:22;19.40;99.90
25436;DHT22;13363;52.772;-3.890;2022-10-18T14:28:15;19.30;99.90
25436;DHT22;13363;52.772;-3.890;2022-10-18T14:31:06;19.20;99.90
25436;DHT22;13363;52.772;-3.890;2022-10-18T14:36:38;19.10;99.90
25436;DHT22;13363;52.772;-3.890;2022-10-18T14:39:13;19.20;99.90
25436;DHT22;13363;52.772;-3.890;2022-10-18T14:41:52;19.30;99.90
25436;DHT22;13363;52.772;-3.890;2022-10-18T14:44:23;19.20;99.90
25436;DHT22;13363;52.772;-3.890;2022-10-18T14:49:24;19.30;99.90
25436;DHT22;13363;52.772;-3.890;2022-10-18T14:51:51;19.40;99.90
25436;DHT22;13363;52.772;-3.890;2022-10-18T14:54:35;19.30;99.90
25436;DHT22;13363;52.772;-3.890;2022-10-18T14:57:02;19.20;99.90
25436;DHT22;13363;52.772;-3.890;2022-10-18T14:59:32;19.30;99.90
25436;DHT22;13363;52.772;-3.890;2022-10-18T15:04:35;19.10;99.90
25436;DHT22;13363;52.772;-3.890;2022-10-18T15:07:04;19.00;99.90
25436;DHT22;13363;52.772;-3.890;2022-10-18T15:09:33;18.90;99.90
25436;DHT22;13363;52.772;-3.890;2022-10-18T15:12:01;18.90;99.90
25436;DHT22;13363;52.772;-3.890;2022-10-18T15:14:28;18.80;99.90
25436;DHT22;13363;52.772;-3.890;2022-10-18T15:16:59;18.70;99.90
25436;DHT22;13363;52.772;-3.890;2022-10-18T15:19:35;18.60;99.90
25436;DHT22;13363;52.772;-3.890;2022-10-18T15:22:04;18.70;99.90
25436;DHT22;13363;52.772;-3.890;2022-10-18T15:27:00;18.50;99.90
25436;DHT22;13363;52.772;-3.890;2022-10-18T15:29:26;18.30;99.90
25436;DHT22;13363;52.772;-3.890;2022-10-18T15:32:11;18.20;99.90
25436;DHT22;13363;52.772;-3.890;2022-10-18T15:34:39;18.10;99.90
25436;DHT22;13363;52.772;-3.890;2022-10-18T15:37:17;18.10;99.90
25436;DHT22;13363;52.772;-3.890;2022-10-18T15:39:46;18.00;99.90
25436;DHT22;13363;52.772;-3.890;2022-10-18T15:42:35;18.00;99.90
25436;DHT22;13363;52.772;-3.890;2022-10-18T15:45:01;17.90;99.90
25436;DHT22;13363;52.772;-3.890;2022-10-18T15:47:26;17.90;99.90
25436;DHT22;13363;52.772;-3.890;2022-10-18T15:49:54;17.90;99.90
25436;DHT22;13363;52.772;-3.890;2022-10-18T15:52:28;17.90;99.90
25436;DHT22;13363;52.772;-3.890;2022-10-18T15:54:54;17.80;99.90
25436;DHT22;13363;52.772;-3.890;2022-10-18T15:57:22;17.80;99.90
25436;DHT22;13363;52.772;-3.890;2022-10-18T15:59:51;17.70;99.90
25436;DHT22;13363;52.772;-3.890;2022-10-18T16:02:18;17.70;99.90
25436;DHT22;13363;52.772;-3.890;2022-10-18T16:04:44;17.70;99.90
25436;DHT22;13363;52.772;-3.890;2022-10-18T16:07:12;17.70;99.90
25436;DHT22;13363;52.772;-3.890;2022-10-18T16:09:38;17.70;99.90
25436;DHT22;13363;52.772;-3.890;2022-10-18T16:12:04;17.70;99.90
25436;DHT22;13363;52.772;-3.890;2022-10-18T16:14:30;17.70;99.90
25436;DHT22;13363;52.772;-3.890;2022-10-18T16:17:01;17.70;99.90
25436;DHT22;13363;52.772;-3.890;2022-10-18T16:19:46;17.60;99.90
25436;DHT22;13363;52.772;-3.890;2022-10-18T16:22:13;17.50;99.90
25436;DHT22;13363;52.772;-3.890;2022-10-18T16:24:39;17.40;99.90
25436;DHT22;13363;52.772;-3.890;2022-10-18T16:27:05;17.40;99.90
25436;DHT22;13363;52.772;-3.890;2022-10-18T16:29:31;17.40;99.90
25436;DHT22;13363;52.772;-3.890;2022-10-18T16:31:58;17.40;99.90
25436;DHT22;13363;52.772;-3.890;2022-10-18T16:34:25;17.40;99.90
25436;DHT22;13363;52.772;-3.890;2022-10-18T16:36:54;17.30;99.90
25436;DHT22;13363;52.772;-3.890;2022-10-18T16:39:20;17.20;99.90
25436;DHT22;13363;52.772;-3.890;2022-10-18T16:41:58;17.20;99.90
25436;DHT22;13363;52.772;-3.890;2022-10-18T16:44:24;17.20;99.90
25436;DHT22;13363;52.772;-3.890;2022-10-18T16:46:50;17.10;99.90
25436;DHT22;13363;52.772;-3.890;2022-10-18T16:49:21;17.10;99.90
25436;DHT22;13363;52.772;-3.890;2022-10-18T16:51:49;17.00;99.90
25436;DHT22;13363;52.772;-3.890;2022-10-18T16:54:15;17.00;99.90
25436;DHT22;13363;52.772;-3.890;2022-10-18T16:56:40;17.00;99.90
25436;DHT22;13363;52.772;-3.890;2022-10-18T16:59:08;17.00;99.90
25436;DHT22;13363;52.772;-3.890;2022-10-18T17:01:34;16.90;99.90
25436;DHT22;13363;52.772;-3.890;2022-10-18T17:04:00;16.90;99.90
25436;DHT22;13363;52.772;-3.890;2022-10-18T17:06:28;16.80;99.90
25436;DHT22;13363;52.772;-3.890;2022-10-18T17:08:55;16.70;99.90
25436;DHT22;13363;52.772;-3.890;2022-10-18T17:11:23;16.70;99.90
25436;DHT22;13363;52.772;-3.890;2022-10-18T17:13:50;16.60;99.90
25436;DHT22;13363;52.772;-3.890;2022-10-18T17:16:31;16.50;99.90
25436;DHT22;13363;52.772;-3.890;2022-10-18T17:18:59;16.40;99.90
25436;DHT22;13363;52.772;-3.890;2022-10-18T17:21:26;16.30;99.90
25436;DHT22;13363;52.772;-3.890;2022-10-18T17:23:52;16.20;99.90
25436;DHT22;13363;52.772;-3.890;2022-10-18T17:26:22;16.10;99.90
25436;DHT22;13363;52.772;-3.890;2022-10-18T17:28:59;16.10;99.90
25436;DHT22;13363;52.772;-3.890;2022-10-18T17:31:25;16.10;99.90
25436;DHT22;13363;52.772;-3.890;2022-10-18T17:33:51;16.10;99.90
25436;DHT22;13363;52.772;-3.890;2022-10-18T17:36:19;16.10;99.90
25436;DHT22;13363;52.772;-3.890;2022-10-18T17:38:48;16.10;99.90
25436;DHT22;13363;52.772;-3.890;2022-10-18T17:41:14;16.20;99.90
25436;DHT22;13363;52.772;-3.890;2022-10-18T17:43:40;16.30;99.90
25436;DHT22;13363;52.772;-3.890;2022-10-18T17:46:06;16.30;99.90
25436;DHT22;13363;52.772;-3.890;2022-10-18T17:48:32;16.40;99.90
25436;DHT22;13363;52.772;-3.890;2022-10-18T17:50:58;16.40;99.90
25436;DHT22;13363;52.772;-3.890;2022-10-18T17:53:24;16.40;99.90
25436;DHT22;13363;52.772;-3.890;2022-10-18T17:55:57;16.30;99.90
25436;DHT22;13363;52.772;-3.890;2022-10-18T17:58:23;16.40;99.90
25436;DHT22;13363;52.772;-3.890;2022-10-18T18:00:49;16.30;99.90
25436;DHT22;13363;52.772;-3.890;2022-10-18T18:03:15;16.30;99.90
25436;DHT22;13363;52.772;-3.890;2022-10-18T18:05:41;16.50;99.90
25436;DHT22;13363;52.772;-3.890;2022-10-18T18:08:07;16.50;99.90
25436;DHT22;13363;52.772;-3.890;2022-10-18T18:10:33;16.40;99.90
25436;DHT22;13363;52.772;-3.890;2022-10-18T18:13:00;16.40;99.90
25436;DHT22;13363;52.772;-3.890;2022-10-18T18:15:26;16.30;99.90
25436;DHT22;13363;52.772;-3.890;2022-10-18T18:17:52;16.40;99.90
25436;DHT22;13363;52.772;-3.890;2022-10-18T18:20:18;16.40;99.90
25436;DHT22;13363;52.772;-3.890;2022-10-18T18:22:45;16.40;99.90
25436;DHT22;13363;52.772;-3.890;2022-10-18T18:25:11;16.40;99.90
25436;DHT22;13363;52.772;-3.890;2022-10-18T18:27:37;16.40;99.90
25436;DHT22;13363;52.772;-3.890;2022-10-18T18:30:05;16.40;99.90
25436;DHT22;13363;52.772;-3.890;2022-10-18T18:32:31;16.40;99.90
25436;DHT22;13363;52.772;-3.890;2022-10-18T18:34:57;16.40;99.90
25436;DHT22;13363;52.772;-3.890;2022-10-18T18:37:22;16.40;99.90
25436;DHT22;13363;52.772;-3.890;2022-10-18T18:39:48;16.30;99.90